createdAt,value
2023-01-04T00:01:33.895Z,-5.68
2023-01-04T00:04:01.941Z,-5.66
2023-01-04T00:06:29.960Z,-5.65
2023-01-04T00:08:57.833Z,-5.67
2023-01-04T00:11:26.089Z,-5.70
2023-01-04T00:13:57.793Z,-5.72
2023-01-04T00:16:29.324Z,-5.67
2023-01-04T00:18:58.205Z,-5.70
2023-01-04T00:21:27.907Z,-5.70
2023-01-04T00:23:57.597Z,-5.67
2023-01-04T00:26:27.515Z,-5.64
2023-01-04T00:28:56.141Z,-5.77
2023-01-04T00:31:26.097Z,-5.77
2023-01-04T00:33:55.525Z,-5.82
2023-01-04T00:36:23.839Z,-5.83
2023-01-04T00:39:08.043Z,-5.81
2023-01-04T00:41:58.175Z,-5.81
2023-01-04T00:44:26.195Z,-5.74
2023-01-04T00:46:55.761Z,-5.76
2023-01-04T00:49:24.073Z,-5.80
2023-01-04T00:51:52.226Z,-5.76
2023-01-04T00:54:20.351Z,-5.75
2023-01-04T00:56:49.427Z,-5.75
2023-01-04T00:59:19.340Z,-5.77
2023-01-04T01:01:48.243Z,-5.77
2023-01-04T01:04:20.102Z,-5.73
2023-01-04T01:06:48.159Z,-5.75
2023-01-04T01:09:16.783Z,-5.78
2023-01-04T01:11:45.437Z,-5.84
2023-01-04T01:14:18.723Z,-5.90
2023-01-04T01:17:02.470Z,-5.89
2023-01-04T01:19:34.578Z,-5.91
2023-01-04T01:22:02.441Z,-5.89
2023-01-04T01:24:30.343Z,-5.90
2023-01-04T01:26:59.078Z,-5.88
2023-01-04T01:29:26.969Z,-5.83
2023-01-04T01:31:55.504Z,-5.87
2023-01-04T01:34:23.583Z,-5.90
2023-01-04T01:36:52.881Z,-5.96
2023-01-04T01:39:20.880Z,-5.98
2023-01-04T01:41:48.969Z,-6.01
2023-01-04T01:44:59.124Z,-5.99
2023-01-04T01:47:32.523Z,-5.91
2023-01-04T01:50:01.594Z,-5.87
2023-01-04T01:52:35.603Z,-5.88
2023-01-04T01:55:07.831Z,-5.94
2023-01-04T01:57:39.307Z,-5.96
2023-01-04T02:00:10.825Z,-5.95
2023-01-04T02:02:40.635Z,-5.98
2023-01-04T02:05:09.381Z,-6.07
2023-01-04T02:07:39.272Z,-6.06
2023-01-04T02:10:08.383Z,-6.10
2023-01-04T02:12:36.387Z,-6.12
2023-01-04T02:15:04.657Z,-6.11
2023-01-04T02:17:40.322Z,-6.19
2023-01-04T02:20:31.515Z,-6.29
2023-01-04T02:23:36.123Z,-6.29
2023-01-04T02:26:44.849Z,-6.34
2023-01-04T02:29:49.107Z,-6.35
2023-01-04T02:32:28.452Z,-6.33
2023-01-04T02:35:04.618Z,-6.41
2023-01-04T02:37:41.477Z,-6.45
2023-01-04T02:40:18.269Z,-6.51
2023-01-04T02:43:16.037Z,-6.53
2023-01-04T02:45:50.880Z,-6.59
2023-01-04T02:48:37.629Z,-6.67
2023-01-04T02:51:05.565Z,-6.78
2023-01-04T02:53:37.396Z,-6.71
2023-01-04T02:56:18.703Z,-6.62
2023-01-04T02:59:04.451Z,-6.71
2023-01-04T03:01:59.225Z,-6.71
2023-01-04T03:04:59.602Z,-6.69
2023-01-04T03:07:34.615Z,-6.71
2023-01-04T03:10:09.323Z,-6.74
2023-01-04T03:12:43.214Z,-6.75
2023-01-04T03:15:16.199Z,-6.74
2023-01-04T03:17:47.997Z,-6.79
2023-01-04T03:20:19.753Z,-6.81
2023-01-04T03:23:09.210Z,-6.76
2023-01-04T03:28:10.731Z,-6.75
2023-01-04T03:31:06.378Z,-6.75
2023-01-04T03:33:51.879Z,-6.74
2023-01-04T03:36:33.915Z,-6.69
2023-01-04T03:39:27.468Z,-6.72
2023-01-04T03:42:19.542Z,-6.76
2023-01-04T03:45:15.907Z,-6.78
2023-01-04T03:48:07.521Z,-6.80
2023-01-04T03:50:40.735Z,-6.88
2023-01-04T03:53:10.229Z,-7.02
2023-01-04T03:55:40.543Z,-7.08
2023-01-04T03:58:08.547Z,-7.15
2023-01-04T04:00:37.926Z,-7.18
2023-01-04T04:03:10.502Z,-7.22
2023-01-04T04:05:58.512Z,-7.25
2023-01-04T04:08:28.657Z,-7.37
2023-01-04T04:10:58.147Z,-7.35
2023-01-04T04:13:26.218Z,-7.24
2023-01-04T04:15:55.677Z,-7.10
2023-01-04T04:18:23.687Z,-7.01
2023-01-04T04:20:58.886Z,-6.98
2023-01-04T04:23:26.773Z,-6.98
2023-01-04T04:25:54.786Z,-6.98
2023-01-04T04:28:22.591Z,-6.99
2023-01-04T04:30:50.633Z,-6.96
2023-01-04T04:33:19.933Z,-6.99
2023-01-04T04:35:51.701Z,-6.90
2023-01-04T04:38:19.807Z,-6.77
2023-01-04T04:41:06.141Z,-6.70
2023-01-04T04:43:34.492Z,-6.54
2023-01-04T04:46:02.953Z,-6.41
2023-01-04T04:48:32.298Z,-6.35
2023-01-04T04:51:00.274Z,-6.32
2023-01-04T04:53:28.219Z,-6.23
2023-01-04T04:55:56.102Z,-6.18
2023-01-04T04:58:23.993Z,-6.15
2023-01-04T05:00:51.864Z,-6.09
2023-01-04T05:03:19.976Z,-6.07
2023-01-04T05:05:49.237Z,-6.04
2023-01-04T05:08:17.151Z,-5.98
2023-01-04T05:10:45.038Z,-5.95
2023-01-04T05:13:13.219Z,-5.96
2023-01-04T05:15:43.279Z,-5.90
2023-01-04T05:18:12.920Z,-5.85
2023-01-04T05:20:41.016Z,-5.78
2023-01-04T05:23:12.666Z,-5.71
2023-01-04T05:25:40.813Z,-5.62
2023-01-04T05:28:09.727Z,-5.59
2023-01-04T05:30:51.905Z,-5.54
2023-01-04T05:33:21.772Z,-5.46
2023-01-04T05:35:49.795Z,-5.47
2023-01-04T05:38:19.499Z,-5.41
2023-01-04T05:40:47.912Z,-5.36
2023-01-04T05:43:16.252Z,-5.30
2023-01-04T05:45:45.814Z,-5.29
2023-01-04T05:48:13.732Z,-5.27
2023-01-04T05:50:41.658Z,-5.19
2023-01-04T05:53:09.646Z,-5.14
2023-01-04T05:55:38.864Z,-5.15
2023-01-04T05:58:06.883Z,-5.12
2023-01-04T06:00:34.808Z,-5.12
2023-01-04T06:03:02.908Z,-5.10
2023-01-04T06:05:30.796Z,-5.03
2023-01-04T06:07:58.716Z,-5.00
2023-01-04T06:10:26.751Z,-4.93
2023-01-04T06:12:56.048Z,-4.94
2023-01-04T06:15:23.892Z,-4.94
2023-01-04T06:17:51.863Z,-4.89
2023-01-04T06:20:19.899Z,-4.84
2023-01-04T06:22:47.877Z,-4.84
2023-01-04T06:25:15.802Z,-4.84
2023-01-04T06:27:43.740Z,-4.78
2023-01-04T06:30:13.611Z,-4.75
2023-01-04T06:32:41.473Z,-4.69
2023-01-04T06:35:09.758Z,-4.69
2023-01-04T06:37:38.238Z,-4.71
2023-01-04T06:40:07.400Z,-4.69
2023-01-04T06:42:47.234Z,-4.66
2023-01-04T06:45:17.287Z,-4.61
2023-01-04T06:47:47.978Z,-4.54
2023-01-04T06:50:15.980Z,-4.52
2023-01-04T06:52:44.300Z,-4.48
2023-01-04T06:55:12.171Z,-4.45
2023-01-04T06:57:40.062Z,-4.43
2023-01-04T07:00:09.779Z,-4.40
2023-01-04T07:02:39.187Z,-4.38
2023-01-04T07:05:26.907Z,-4.31
2023-01-04T07:07:54.860Z,-4.19
2023-01-04T07:10:22.790Z,-4.17
2023-01-04T07:12:50.648Z,-4.13
2023-01-04T07:15:38.041Z,-4.09
2023-01-04T07:18:07.934Z,-4.08
2023-01-04T07:20:35.905Z,-4.01
2023-01-04T07:23:03.924Z,-3.99
2023-01-04T07:25:31.858Z,-3.95
2023-01-04T07:27:59.761Z,-3.91
2023-01-04T07:30:27.776Z,-3.88
2023-01-04T07:32:57.042Z,-3.86
2023-01-04T07:35:27.006Z,-3.88
2023-01-04T07:37:58.739Z,-3.85
2023-01-04T07:40:28.002Z,-3.84
2023-01-04T07:42:58.032Z,-3.81
2023-01-04T07:45:26.818Z,-3.75
2023-01-04T07:47:54.949Z,-3.72
2023-01-04T07:50:22.879Z,-3.73
2023-01-04T07:52:52.144Z,-3.71
2023-01-04T07:55:20.053Z,-3.67
2023-01-04T07:57:47.944Z,-3.65
2023-01-04T08:00:16.510Z,-3.64
2023-01-04T08:02:44.665Z,-3.63
2023-01-04T08:05:12.726Z,-3.60
2023-01-04T08:07:40.635Z,-3.56
2023-01-04T08:10:10.557Z,-3.55
2023-01-04T08:12:38.341Z,-3.55
2023-01-04T08:15:07.283Z,-3.47
2023-01-04T08:17:35.564Z,-3.45
2023-01-04T08:20:03.536Z,-3.43
2023-01-04T08:22:31.412Z,-3.39
2023-01-04T08:24:59.716Z,-3.37
2023-01-04T08:27:29.072Z,-3.37
2023-01-04T08:29:57.049Z,-3.38
2023-01-04T08:32:25.052Z,-3.36
2023-01-04T08:34:54.305Z,-3.33
2023-01-04T08:37:22.578Z,-3.32
2023-01-04T08:39:50.429Z,-3.27
2023-01-04T08:42:28.533Z,-3.23
2023-01-04T08:45:01.806Z,-3.19
2023-01-04T08:47:30.298Z,-3.16
2023-01-04T08:49:58.671Z,-3.15
2023-01-04T08:52:27.140Z,-3.17
2023-01-04T08:54:55.208Z,-3.14
2023-01-04T08:57:23.101Z,-3.11
2023-01-04T08:59:50.996Z,-3.14
2023-01-04T09:02:25.482Z,-3.17
2023-01-04T09:04:55.353Z,-3.19
2023-01-04T09:07:23.305Z,-3.16
2023-01-04T09:09:51.152Z,-3.10
2023-01-04T09:12:19.083Z,-3.09
2023-01-04T09:14:47.044Z,-3.11
2023-01-04T09:17:15.006Z,-3.08
2023-01-04T09:19:44.237Z,-3.06
2023-01-04T09:22:12.208Z,-3.06
2023-01-04T09:24:40.179Z,-3.05
2023-01-04T09:27:08.127Z,-3.05
2023-01-04T09:29:36.087Z,-3.03
2023-01-04T09:32:04.135Z,-3.00
2023-01-04T09:34:32.054Z,-2.99
2023-01-04T09:37:01.405Z,-2.98
2023-01-04T09:39:30.660Z,-2.98
2023-01-04T09:42:00.354Z,-2.98
2023-01-04T09:47:36.032Z,-2.94
2023-01-04T09:50:07.734Z,-2.94
2023-01-04T09:52:50.444Z,-2.89
2023-01-04T09:55:39.768Z,-2.86
2023-01-04T09:58:27.872Z,-2.83
2023-01-04T10:01:03.091Z,-2.79
2023-01-04T10:03:34.522Z,-2.77
2023-01-04T10:06:03.943Z,-2.74
2023-01-04T10:08:33.631Z,-2.76
2023-01-04T10:11:17.211Z,-2.71
2023-01-04T10:13:54.897Z,-2.67
2023-01-04T10:17:11.861Z,-2.62
2023-01-04T10:22:37.799Z,-2.70
2023-01-04T10:25:25.234Z,-2.68
2023-01-04T10:28:07.973Z,-2.62
2023-01-04T10:30:45.399Z,-2.63
2023-01-04T10:33:15.554Z,-2.62
2023-01-04T10:35:45.913Z,-2.59
2023-01-04T10:38:19.299Z,-2.56
2023-01-04T10:40:50.427Z,-2.54
2023-01-04T10:43:30.748Z,-2.53
2023-01-04T10:46:23.791Z,-2.51
2023-01-04T10:48:57.452Z,-2.51
2023-01-04T10:51:32.854Z,-2.48
2023-01-04T10:54:08.768Z,-2.46
2023-01-04T10:56:46.179Z,-2.41
2023-01-04T10:59:18.173Z,-2.42
2023-01-04T11:01:53.204Z,-2.39
2023-01-04T11:04:26.919Z,-2.37
2023-01-04T11:07:01.284Z,-2.33
2023-01-04T11:09:34.422Z,-2.32
2023-01-04T11:12:04.129Z,-2.28
2023-01-04T11:14:37.273Z,-2.28
2023-01-04T11:17:08.699Z,-2.26
2023-01-04T11:19:36.801Z,-2.22
2023-01-04T11:22:12.581Z,-2.21
2023-01-04T11:24:54.491Z,-2.19
2023-01-04T11:27:36.824Z,-2.15
2023-01-04T11:30:11.551Z,-2.17
2023-01-04T11:32:46.312Z,-2.12
2023-01-04T11:35:14.610Z,-2.10
2023-01-04T11:37:43.477Z,-2.06
2023-01-04T11:40:22.504Z,-2.05
2023-01-04T11:42:53.659Z,-2.01
2023-01-04T11:45:25.490Z,-1.99
2023-01-04T11:47:55.002Z,-2.00
2023-01-04T11:50:37.582Z,-2.00
2023-01-04T11:53:23.920Z,-1.95
2023-01-04T11:55:52.415Z,-1.95
2023-01-04T11:58:22.124Z,-1.94
2023-01-04T12:00:54.717Z,-1.92
2023-01-04T12:03:27.647Z,-1.91
2023-01-04T12:05:55.998Z,-1.91
2023-01-04T12:08:30.380Z,-1.89
2023-01-04T12:10:59.401Z,-1.92
2023-01-04T12:13:29.507Z,-1.87
2023-01-04T12:16:06.794Z,-1.86
2023-01-04T12:18:38.500Z,-1.84
2023-01-04T12:21:06.849Z,-1.81
2023-01-04T12:23:35.173Z,-1.83
2023-01-04T12:26:03.862Z,-1.81
2023-01-04T12:28:36.205Z,-1.80
2023-01-04T12:31:33.726Z,-1.79
2023-01-04T12:34:31.389Z,-1.79
2023-01-04T12:37:05.255Z,-1.76
2023-01-04T12:39:43.700Z,-1.80
2023-01-04T12:42:22.173Z,-1.76
2023-01-04T12:45:19.207Z,-1.75
2023-01-04T12:48:09.355Z,-1.74
2023-01-04T12:51:35.422Z,-1.70
2023-01-04T12:54:04.604Z,-1.72
2023-01-04T12:57:23.771Z,-1.67
2023-01-04T12:59:56.309Z,-1.69
2023-01-04T13:02:27.669Z,-1.71
2023-01-04T13:05:25.741Z,-1.68
2023-01-04T13:07:48.303Z,-1.64
2023-01-04T13:10:34.961Z,-1.64
2023-01-04T13:13:17.249Z,-1.64
2023-01-04T13:15:56.251Z,-1.62
2023-01-04T13:18:41.658Z,-1.59
2023-01-04T13:21:15.510Z,-1.57
2023-01-04T13:23:50.913Z,-1.56
2023-01-04T13:26:29.868Z,-1.54
2023-01-04T13:29:15.822Z,-1.55
2023-01-04T13:31:50.981Z,-1.53
2023-01-04T13:34:26.280Z,-1.55
2023-01-04T13:37:01.721Z,-1.51
2023-01-04T13:39:30.221Z,-1.51
2023-01-04T13:41:59.309Z,-1.55
2023-01-04T13:45:17.779Z,-1.52
2023-01-04T13:47:36.737Z,-1.51
2023-01-04T13:50:15.181Z,-1.47
2023-01-04T13:53:00.073Z,-1.48
2023-01-04T13:55:35.884Z,-1.52
2023-01-04T13:58:08.200Z,-1.47
2023-01-04T14:00:43.877Z,-1.49
2023-01-04T14:03:31.495Z,-1.50
2023-01-04T14:06:13.142Z,-1.48
2023-01-04T14:08:45.757Z,-1.48
2023-01-04T14:11:40.031Z,-1.48
2023-01-04T14:14:23.390Z,-1.48
2023-01-04T14:16:52.839Z,-1.49
2023-01-04T14:19:43.383Z,-1.49
2023-01-04T14:22:38.085Z,-1.48
2023-01-04T14:25:48.556Z,-1.50
2023-01-04T14:28:49.707Z,-1.52
2023-01-04T14:31:36.394Z,-1.49
2023-01-04T14:34:14.464Z,-1.51
2023-01-04T14:36:44.246Z,-1.55
2023-01-04T14:39:35.528Z,-1.54
2023-01-04T14:42:05.058Z,-1.53
2023-01-04T14:44:36.155Z,-1.50
2023-01-04T14:47:07.356Z,-1.54
2023-01-04T14:49:35.549Z,-1.57
2023-01-04T14:52:10.346Z,-1.57
2023-01-04T14:54:40.253Z,-1.51
2023-01-04T14:57:08.193Z,-1.56
2023-01-04T14:59:36.128Z,-1.54
2023-01-04T15:02:04.036Z,-1.56
2023-01-04T15:04:32.017Z,-1.57
2023-01-04T15:07:01.387Z,-1.56
2023-01-04T15:09:30.106Z,-1.56
2023-01-04T15:11:59.559Z,-1.55
2023-01-04T15:14:27.539Z,-1.53
2023-01-04T15:16:55.397Z,-1.56
2023-01-04T15:19:23.431Z,-1.59
2023-01-04T15:21:51.307Z,-1.52
2023-01-04T15:24:19.247Z,-1.51
2023-01-04T15:26:47.214Z,-1.56
2023-01-04T15:29:16.538Z,-1.51
2023-01-04T15:31:44.767Z,-1.53
2023-01-04T15:34:14.908Z,-1.53
2023-01-04T15:36:42.779Z,-1.54
2023-01-04T15:39:14.070Z,-1.51
2023-01-04T15:41:59.295Z,-1.54
2023-01-04T15:44:28.683Z,-1.51
2023-01-04T15:46:59.322Z,-1.55
2023-01-04T15:49:27.600Z,-1.58
2023-01-04T15:51:55.455Z,-1.55
2023-01-04T15:54:25.811Z,-1.59
2023-01-04T15:56:53.688Z,-1.63
2023-01-04T15:59:21.701Z,-1.58
2023-01-04T16:01:51.175Z,-1.58
2023-01-04T16:04:19.188Z,-1.60
2023-01-04T16:06:47.201Z,-1.58
2023-01-04T16:09:16.387Z,-1.59
2023-01-04T16:11:58.202Z,-1.58
2023-01-04T16:14:26.085Z,-1.62
2023-01-04T16:16:57.650Z,-1.63
2023-01-04T16:19:25.538Z,-1.58
2023-01-04T16:21:53.460Z,-1.56
2023-01-04T16:27:09.716Z,-1.54
2023-01-04T16:29:37.827Z,-1.54
2023-01-04T16:32:08.069Z,-1.57
2023-01-04T16:34:36.249Z,-1.54
2023-01-04T16:37:04.302Z,-1.59
2023-01-04T16:40:05.429Z,-1.53
2023-01-04T16:42:20.459Z,-1.53
2023-01-04T16:44:48.312Z,-1.56
2023-01-04T16:47:17.869Z,-1.58
2023-01-04T16:49:45.918Z,-1.58
2023-01-04T16:52:14.154Z,-1.54
2023-01-04T16:54:42.111Z,-1.51
2023-01-04T16:57:10.030Z,-1.53
2023-01-04T16:59:37.947Z,-1.55
2023-01-04T17:02:06.069Z,-1.56
2023-01-04T17:04:35.569Z,-1.55
2023-01-04T17:07:05.507Z,-1.56
2023-01-04T17:09:33.527Z,-1.57
2023-01-04T17:12:45.007Z,-1.56
2023-01-04T17:15:14.888Z,-1.53
2023-01-04T17:17:39.044Z,-1.55
2023-01-04T17:20:09.714Z,-1.54
2023-01-04T17:22:37.568Z,-1.53
2023-01-04T17:25:06.238Z,-1.52
2023-01-04T17:27:36.031Z,-1.48
2023-01-04T17:30:04.215Z,-1.50
2023-01-04T17:32:32.068Z,-1.52
2023-01-04T17:34:59.903Z,-1.50
2023-01-04T17:37:29.216Z,-1.49
2023-01-04T17:39:57.131Z,-1.51
2023-01-04T17:42:25.005Z,-1.51
2023-01-04T17:44:53.534Z,-1.49
2023-01-04T17:47:21.447Z,-1.49
2023-01-04T17:49:49.373Z,-1.47
2023-01-04T17:52:24.438Z,-1.50
2023-01-04T17:54:58.255Z,-1.46
2023-01-04T17:57:26.527Z,-1.44
2023-01-04T17:59:54.382Z,-1.44
2023-01-04T18:02:22.293Z,-1.45
2023-01-04T18:04:50.144Z,-1.44
2023-01-04T18:07:18.016Z,-1.43
2023-01-04T18:09:45.921Z,-1.39
2023-01-04T18:12:15.300Z,-1.38
2023-01-04T18:14:43.193Z,-1.36
2023-01-04T18:17:11.220Z,-1.34
2023-01-04T18:19:41.680Z,-1.33
2023-01-04T18:22:12.473Z,-1.33
2023-01-04T18:24:40.385Z,-1.34
2023-01-04T18:27:26.218Z,-1.28
2023-01-04T18:29:57.087Z,-1.27
2023-01-04T18:32:26.715Z,-1.26
2023-01-04T18:34:57.253Z,-1.23
2023-01-04T18:37:25.135Z,-1.24
2023-01-04T18:39:53.299Z,-1.21
2023-01-04T18:42:21.149Z,-1.18
2023-01-04T18:44:49.866Z,-1.18
2023-01-04T18:47:21.664Z,-1.16
2023-01-04T18:49:49.809Z,-1.14
2023-01-04T18:52:18.653Z,-1.10
2023-01-04T18:54:48.021Z,-1.11
2023-01-04T18:57:16.277Z,-1.09
2023-01-04T18:59:44.227Z,-1.08
2023-01-04T19:02:17.745Z,-1.06
2023-01-04T19:04:47.420Z,-1.06
2023-01-04T19:07:15.613Z,-1.03
2023-01-04T19:09:43.837Z,-1.01
2023-01-04T19:12:12.090Z,-1.01
2023-01-04T19:14:41.156Z,-0.97
2023-01-04T19:17:09.465Z,-0.99
2023-01-04T19:19:37.997Z,-0.98
2023-01-04T19:22:07.509Z,-0.96
2023-01-04T19:24:35.482Z,-0.94
2023-01-04T19:27:05.219Z,-0.94
2023-01-04T19:29:36.108Z,-0.93
2023-01-04T19:32:04.459Z,-0.92
2023-01-04T19:34:32.649Z,-0.94
2023-01-04T19:37:00.656Z,-0.91
2023-01-04T19:39:30.285Z,-0.94
2023-01-04T19:41:58.104Z,-0.90
2023-01-04T19:44:25.994Z,-0.90
2023-01-04T19:46:54.003Z,-0.90
2023-01-04T19:49:21.986Z,-0.92
2023-01-04T19:51:51.727Z,-0.89
2023-01-04T19:54:25.028Z,-0.88
2023-01-04T19:56:55.434Z,-0.88
2023-01-04T19:59:24.024Z,-0.87
2023-01-04T20:01:52.660Z,-0.86
2023-01-04T20:04:20.836Z,-0.81
2023-01-04T20:06:48.914Z,-0.78
2023-01-04T20:09:18.524Z,-0.77
2023-01-04T20:11:46.627Z,-0.77
2023-01-04T20:14:15.944Z,-0.79
2023-01-04T20:16:44.053Z,-0.79
2023-01-04T20:19:12.009Z,-0.76
2023-01-04T20:21:40.544Z,-0.77
2023-01-04T20:24:09.031Z,-0.75
2023-01-04T20:26:37.897Z,-0.76
2023-01-04T20:29:06.428Z,-0.78
2023-01-04T20:31:38.970Z,-0.76
2023-01-04T20:34:10.308Z,-0.72
2023-01-04T20:36:39.746Z,-0.70
2023-01-04T20:39:07.646Z,-0.72
2023-01-04T20:41:35.569Z,-0.73
2023-01-04T20:44:02.974Z,-0.67
2023-01-04T20:46:33.148Z,-0.68
2023-01-04T20:49:03.873Z,-0.64
2023-01-04T20:51:32.251Z,-0.63
2023-01-04T20:54:00.803Z,-0.61
2023-01-04T20:56:31.550Z,-0.57
2023-01-04T20:58:59.528Z,-0.58
2023-01-04T21:01:27.749Z,-0.55
2023-01-04T21:03:56.157Z,-0.54
2023-01-04T21:06:25.868Z,-0.57
2023-01-04T21:08:55.148Z,-0.53
2023-01-04T21:11:23.795Z,-0.54
2023-01-04T21:13:53.266Z,-0.55
2023-01-04T21:16:21.337Z,-0.53
2023-01-04T21:18:49.355Z,-0.53
2023-01-04T21:21:18.761Z,-0.53
2023-01-04T21:23:54.744Z,-0.54
2023-01-04T21:26:25.689Z,-0.54
2023-01-04T21:28:53.652Z,-0.57
2023-01-04T21:31:24.159Z,-0.59
2023-01-04T21:33:53.435Z,-0.61
2023-01-04T21:36:23.289Z,-0.65
2023-01-04T21:38:54.232Z,-0.65
2023-01-04T21:41:24.868Z,-0.67
2023-01-04T21:43:54.417Z,-0.68
2023-01-04T21:46:24.975Z,-0.67
2023-01-04T21:48:55.817Z,-0.69
2023-01-04T21:51:24.218Z,-0.70
2023-01-04T21:53:53.572Z,-0.69
2023-01-04T21:56:24.350Z,-0.69
2023-01-04T21:58:52.484Z,-0.66
2023-01-04T22:01:22.925Z,-0.67
2023-01-04T22:03:51.398Z,-0.64
2023-01-04T22:06:20.820Z,-0.64
2023-01-04T22:08:48.818Z,-0.64
2023-01-04T22:11:18.363Z,-0.61
2023-01-04T22:13:46.386Z,-0.59
2023-01-04T22:16:16.024Z,-0.61
2023-01-04T22:18:48.564Z,-0.59
2023-01-04T22:21:18.893Z,-0.61
2023-01-04T22:23:46.911Z,-0.59
2023-01-04T22:26:14.725Z,-0.57
2023-01-04T22:28:44.188Z,-0.57
2023-01-04T22:31:14.789Z,-0.56
2023-01-04T22:33:43.260Z,-0.55
2023-01-04T22:36:21.289Z,-0.58
2023-01-04T22:38:50.866Z,-0.56
2023-01-04T22:41:21.199Z,-0.55
2023-01-04T22:43:55.581Z,-0.57
2023-01-04T22:46:23.564Z,-0.60
2023-01-04T22:48:51.444Z,-0.61
2023-01-04T22:51:20.955Z,-0.60
2023-01-04T22:53:49.091Z,-0.62
2023-01-04T22:56:21.376Z,-0.64
2023-01-04T22:58:54.168Z,-0.61
2023-01-04T23:01:23.211Z,-0.62
2023-01-04T23:03:52.471Z,-0.64
2023-01-04T23:06:20.801Z,-0.67
2023-01-04T23:08:48.720Z,-0.66
2023-01-04T23:11:19.135Z,-0.65
2023-01-04T23:13:47.344Z,-0.66
2023-01-04T23:16:17.839Z,-0.69
2023-01-04T23:18:46.629Z,-0.69
2023-01-04T23:21:15.226Z,-0.65
2023-01-04T23:23:43.719Z,-0.65
2023-01-04T23:26:15.001Z,-0.63
2023-01-04T23:28:43.230Z,-0.65
2023-01-04T23:31:14.352Z,-0.63
2023-01-04T23:33:43.693Z,-0.62
2023-01-04T23:36:14.364Z,-0.66
2023-01-04T23:38:42.960Z,-0.64
2023-01-04T23:41:12.225Z,-0.64
2023-01-04T23:43:40.365Z,-0.64
2023-01-04T23:48:37.156Z,-0.65
2023-01-04T23:51:06.909Z,-0.69
2023-01-04T23:53:34.940Z,-0.69
2023-01-04T23:56:06.047Z,-0.72
2023-01-04T23:58:35.126Z,-0.71
